Flight Track Log - Related Links

Times and Time Zones

All times are in EDT time to prevent confusion due to time zone crossing. See the SWA158 flight status page for this flight to view local times or setup timezone preferences in your user account.

Time Position Orientation Groundspeed Altitude Reporting Facility
EDT Latitude Longitude Course Direction KTS MPH feet Rate Location/Type
Mon 02:30:25 PM 41.7667 -87.7833 14° North 166 191 2,000  Level Chicago TRACON
Mon 02:31:26 PM 41.8167 -87.7667 14° North 268 308 4,800 2,058 Climbing Chicago TRACON
Mon 02:33:17 PM 41.8347 -87.5950 82° East 269 310 7,900 2,254 Climbing Chicago Center
Mon 02:34:19 PM 41.8433 -87.4894 84° East 283 326 11,300 3,145 Climbing Chicago Center
Mon 02:35:21 PM 41.8261 -87.3772 102° East 307 353 14,400 2,806 Climbing Chicago Center
Mon 02:36:23 PM 41.8011 -87.2511 105° East 335 386 17,100 2,565 Climbing Chicago Center
Mon 02:37:25 PM 41.7739 -87.1164 105° East 363 418 19,700 2,855 Climbing Chicago Center
Mon 02:38:27 PM 41.7636 -86.9428 94° East 394 453 23,000 2,613 Climbing Chicago Center
Mon 02:39:29 PM 41.7656 -86.7906 89° East 405 466 25,100 1,935 Climbing Chicago Center
Mon 02:40:31 PM 41.7650 -86.6278 90° East 429 494 27,000 1,790 Climbing Chicago Center
Mon 02:41:33 PM 41.7675 -86.4619 89° East 444 511 28,800 1,645 Climbing Chicago Center
Mon 02:42:35 PM 41.7825 -86.2942 83° East 460 529 30,400 1,548 Climbing Chicago Center
Mon 02:43:37 PM 41.8714 -86.1772 44° Northeast 446 513 32,000 1,597 Climbing Chicago Center
Mon 02:44:39 PM 41.9503 -86.0500 50° Northeast 456 525 33,700 1,452 Climbing Chicago Center
Mon 02:45:41 PM 41.9553 -85.8422 88° East 466 536 35,000 1,306 Climbing Chicago Center
Mon 02:46:43 PM 41.9544 -85.6614 90° East 478 550 36,400 1,452 Climbing Chicago Center
Mon 02:47:45 PM 41.9539 -85.4853 90° East 470 541 38,000 1,065 Climbing Chicago Center
Mon 02:48:47 PM 41.9519 -85.3089 91° East 468 539 38,600 477 Climbing Chicago Center
Mon 02:49:13 PM 41.9531 -85.2383 89° East 468 539 38,700 279 Climbing Cleveland Center
Mon 02:50:13 PM 41.9519 -85.0539 90° East 474 545 39,000 150 Climbing Cleveland Center
Mon 02:51:13 PM 41.9528 -84.8722 90° East 481 554 39,000  Level Cleveland Center
Mon 02:52:13 PM 41.9517 -84.6739 90° East 481 554 39,000  Level Cleveland Center
Mon 02:53:13 PM 41.9494 -84.4950 91° East 481 554 39,000  Level Cleveland Center
Mon 02:54:13 PM 41.9453 -84.3131 92° East 481 554 39,000  Level Cleveland Center
Mon 02:55:13 PM 41.9522 -84.1544 87° East 475 547 39,000  Level Cleveland Center
Mon 02:56:13 PM 41.9667 -83.9569 84° East 481 554 39,000  Level Cleveland Center
Mon 02:57:13 PM 41.9781 -83.7786 85° East 476 548 39,000  Level Cleveland Center
Mon 02:58:13 PM 41.9911 -83.6033 84° East 476 548 39,000  Level Cleveland Center
Mon 02:59:13 PM 42.0017 -83.4278 85° East 476 548 39,000  Level Cleveland Center
Mon 03:00:13 PM 42.0122 -83.2492 85° East 481 554 39,000  Level Cleveland Center
Mon 03:01:13 PM 42.0225 -83.0708 86° East 481 554 39,000  Level Cleveland Center
Mon 03:02:13 PM 42.0325 -82.8950 86° East 481 554 39,000  Level Cleveland Center
Mon 03:03:13 PM 42.0444 -82.7108 85° East 481 554 39,000  Level Cleveland Center
Mon 03:04:13 PM 42.0581 -82.5325 84° East 481 554 39,000  Level Cleveland Center
Mon 03:05:13 PM 42.0631 -82.3564 88° East 476 548 39,000  Level Cleveland Center
Mon 03:06:13 PM 42.0678 -82.1775 88° East 476 548 39,000  Level Cleveland Center
Mon 03:07:13 PM 42.0803 -82.0128 84° East 476 548 39,000  Level Cleveland Center
Mon 03:08:13 PM 42.0886 -81.8367 86° East 476 548 39,000  Level Cleveland Center
Mon 03:09:13 PM 42.0986 -81.6606 86° East 475 547 39,000  Level Cleveland Center
Mon 03:10:13 PM 42.1067 -81.4758 87° East 475 547 39,000  Level Cleveland Center
Mon 03:11:13 PM 42.1142 -81.2800 87° East 480 552 39,000  Level Cleveland Center
Mon 03:12:13 PM 42.1236 -81.0983 86° East 480 552 39,000  Level Cleveland Center
Mon 03:13:13 PM 42.1303 -80.9164 87° East 485 558 39,000  Level Cleveland Center
Mon 03:14:13 PM 42.1369 -80.7344 87° East 480 552 39,000  Level Cleveland Center
Mon 03:15:13 PM 42.1433 -80.5522 87° East 480 552 39,000  Level Cleveland Center
Mon 03:16:13 PM 42.1494 -80.3731 87° East 480 552 39,000  Level Cleveland Center
Mon 03:17:13 PM 42.1572 -80.1939 87° East 480 552 39,000  Level Cleveland Center
Mon 03:18:13 PM 42.1608 -80.0342 88° East 480 552 39,000  Level Cleveland Center
Mon 03:19:13 PM 42.1683 -79.8547 87° East 480 552 39,000  Level Cleveland Center
Mon 03:20:13 PM 42.1731 -79.6531 88° East 480 552 39,000  Level Cleveland Center
Mon 03:21:13 PM 42.1797 -79.4736 87° East 485 558 39,000  Level Cleveland Center
Mon 03:22:13 PM 42.1842 -79.2942 88° East 480 552 39,000  Level Cleveland Center
Mon 03:23:13 PM 42.1886 -79.1456 88° East 480 552 39,000  Level Cleveland Center
Mon 03:24:13 PM 42.2128 -78.9319 81° East 480 552 39,000  Level Cleveland Center
Mon 03:25:13 PM 42.2333 -78.7717 80° East 480 552 39,000  Level Cleveland Center
Mon 03:26:13 PM 42.2575 -78.5914 80° East 487 560 39,000  Level Cleveland Center
Mon 03:27:13 PM 42.2794 -78.4167 80° East 487 560 39,000  Level Cleveland Center
Mon 03:28:13 PM 42.3025 -78.2164 81° East 487 560 39,000  Level Cleveland Center
Mon 03:29:13 PM 42.3239 -78.0386 81° East 487 560 39,000  Level Cleveland Center
Mon 03:30:13 PM 42.3447 -77.8608 81° East 487 560 39,000  Level Cleveland Center
Mon 03:31:13 PM 42.3675 -77.6828 80° East 487 560 39,000  Level Cleveland Center
Mon 03:33:27 PM 42.4089 -77.2972 82° East 492 566 39,000 -31 Level Boston Center
Mon 03:34:27 PM 42.4311 -77.1189 80° East 487 560 38,900  Descending Boston Center
Mon 03:35:27 PM 42.4489 -76.9400 82° East 482 555 39,000 50 Climbing Boston Center
Mon 03:36:27 PM 42.4686 -76.7528 82° East 482 555 39,000  Level Boston Center
Mon 03:37:27 PM 42.4906 -76.5542 81° East 482 555 39,000  Level Boston Center
Mon 03:38:27 PM 42.5089 -76.3864 82° East 482 555 39,000  Level Boston Center
Mon 03:39:27 PM 42.5275 -76.2072 82° East 482 555 39,000  Level Boston Center
Mon 03:40:27 PM 42.5461 -76.0222 82° East 487 560 39,000  Level Boston Center
Mon 03:41:27 PM 42.5664 -75.8372 81° East 487 560 39,000  Level Boston Center
Mon 03:42:27 PM 42.5822 -75.6519 83° East 487 560 39,000  Level Boston Center
Mon 03:43:27 PM 42.6019 -75.4642 82° East 493 567 39,000 -900 Level Boston Center
Mon 03:44:27 PM 42.6169 -75.2842 83° East 498 573 37,200 -2,200 Descending Boston Center
Mon 03:45:27 PM 42.6339 -75.0986 83° East 498 573 34,600 -2,750 Descending Boston Center
Mon 03:46:27 PM 42.6508 -74.9131 83° East 498 573 31,700 -2,650 Descending Boston Center
Mon 03:47:27 PM 42.6692 -74.7303 82° East 498 573 29,300 -1,350 Descending Boston Center
Mon 03:48:27 PM 42.6828 -74.5642 84° East 478 550 29,000 -150 Descending Boston Center
Mon 03:49:27 PM 42.6964 -74.3922 84° East 464 534 29,000 -450 Level Boston Center
Mon 03:50:27 PM 42.7114 -74.2286 83° East 446 513 28,100 -950 Descending Boston Center
Mon 03:51:27 PM 42.7264 -74.0625 83° East 441 507 27,100 -1,150 Descending Boston Center
Mon 03:52:27 PM 42.7392 -73.8958 84° East 441 507 25,800 -1,550 Descending Boston Center
Mon 03:53:27 PM 42.7517 -73.7125 85° East 441 507 24,000 -1,050 Descending Boston Center
Mon 03:54:27 PM 42.7572 -73.5769 87° East 441 507 23,700 -700 Descending Boston Center
Mon 03:55:27 PM 42.7631 -73.4186 87° East 436 502 22,600 -1,100 Descending Boston Center
Mon 03:56:27 PM 42.7686 -73.2517 87° East 419 482 21,500 -1,050 Descending Boston Center
Mon 03:57:27 PM 42.7736 -73.0964 87° East 406 467 20,500 -1,050 Descending Boston Center
Mon 03:58:27 PM 42.7764 -72.9408 89° East 404 465 19,400 -900 Descending Boston Center
Mon 03:59:27 PM 42.7811 -72.8022 87° East 393 452 18,700 -550 Descending Boston Center
Mon 04:00:27 PM 42.7858 -72.6578 87° East 380 437 18,300 -1,000 Descending Boston Center
Mon 04:01:27 PM 42.7900 -72.5164 88° East 380 437 16,700 -1,950 Descending Boston Center
Mon 04:02:27 PM 42.7942 -72.3778 88° East 366 421 14,400 -2,300 Descending Boston Center
Mon 04:03:27 PM 42.7983 -72.2308 88° East 366 421 12,100 -2,000 Descending Boston Center
Mon 04:04:27 PM 42.8083 -72.1147 83° East 351 404 10,400 -1,150 Descending Boston Center
Mon 04:05:27 PM 42.8308 -71.9983 75° East 309 356 9,800 -950 Descending Boston Center
Mon 04:06:27 PM 42.8661 -71.9133 60° Northeast 278 320 8,500 -1,300 Descending Boston Center
Mon 04:07:27 PM 42.9050 -71.8164 61° Northeast 273 314 7,200 -1,300 Descending Boston Center
Mon 04:08:27 PM 42.9381 -71.7367 60° Northeast 268 308 5,900 -1,450 Descending Boston Center
Mon 04:09:27 PM 42.9728 -71.6456 62° Northeast 258 297 4,300 -850 Descending Boston Center
Mon 04:10:27 PM 42.9994 -71.5800 61° Northeast 229 264 4,200 -700 Descending Boston Center
Mon 04:11:27 PM 43.0242 -71.5256 58° Northeast 165 190 2,900 -1,150 Descending Boston Center
Mon 04:12:27 PM 43.0133 -71.4889 112° Southeast 115 132 1,900 -900 Descending Boston Center
Mon 04:13:27 PM 42.9778 -71.4611 150° Southeast 120 138 1,100 8,550 Descending Boston Center
Mon 04:14:27 PM 42.9464 -71.4444 159° South 138 159 19,000 8,950 Climbing Boston Center
Mon 04:15:27 PM 42.9064 -71.4197 156° South 138 159 19,000  Level Boston Center
Mon 04:16:27 PM 42.8708 -71.4003 158° South 138 159 19,000  Level Boston Center
Mon 04:18:00 PM 42.9167 -71.4333 316° Northwest  Level FlightAware Approximate
Mon 04:25:00 PM 42.9328 -71.4358 316° Northwest  Level Estimated
Mon 04:26:00 PM 42.9328 -71.4358 316° Northwest  Level Estimated
Mon 04:27:00 PM 42.9328 -71.4358 316° Northwest  Level Estimated
Mon 04:28:00 PM 42.9328 -71.4358 316° Northwest  Level Estimated
Mon 04:29:00 PM 42.9328 -71.4358 316° Northwest  Level Estimated
Mon 04:30:00 PM 42.9328 -71.4358 316° Northwest  Level Estimated
Mon 04:31:00 PM 42.9328 -71.4358 316° Northwest  Level Estimated

Login

Don't have an account? Register now (free) for customized features, flight alerts, and more!